Time;durP1;ratioP1;P1;durP2;ratioP2;P2;SDS_P1;SDS_P2;PMS_P1;PMS_P2;Temp;Humidity;BMP_temperature;BMP_pressure;BME280_temperature;BME280_humidity;BME280_pressure;Samples;Min_cycle;Max_cycle;Signal;HPM_P1;HPM_P2
2022/12/07 00:01:14;;;;;;;13.32;2.13;;;;;;;5.21;100.00;101953.94;5048453;28;20021;-66
2022/12/07 00:03:41;;;;;;;7.70;1.75;;;;;;;5.26;100.00;101954.84;5047880;28;20037;-60
2022/12/07 00:06:08;;;;;;;4.40;1.63;;;;;;;5.35;100.00;101964.50;5048052;28;20090;-65
2022/12/07 00:08:34;;;;;;;5.38;1.45;;;;;;;5.44;100.00;101971.50;5048171;28;20044;-67
2022/12/07 00:11:13;;;;;;;7.38;1.55;;;;;;;5.52;100.00;101979.41;5048370;28;20036;-56
2022/12/07 00:13:39;;;;;;;9.98;2.03;;;;;;;5.55;100.00;101963.75;5049181;28;20538;-65
2022/12/07 00:16:13;;;;;;;8.85;1.52;;;;;;;5.60;100.00;101935.84;5048757;28;20029;-66
2022/12/07 00:18:39;;;;;;;11.23;1.40;;;;;;;5.71;100.00;101943.75;5048368;28;20096;-68
2022/12/07 00:21:10;;;;;;;5.70;1.10;;;;;;;5.77;100.00;101940.28;5040688;28;20120;-62
2022/12/07 00:23:36;;;;;;;14.63;1.50;;;;;;;5.79;100.00;101936.84;5028451;28;20029;-67
2022/12/07 00:26:09;;;;;;;10.75;1.65;;;;;;;5.81;100.00;101935.06;5027697;28;20055;-68
2022/12/07 00:28:34;;;;;;;9.20;1.25;;;;;;;5.80;100.00;101928.09;5032299;28;20481;-69
2022/12/07 00:31:11;;;;;;;7.60;1.50;;;;;;;5.72;100.00;101929.81;5032785;28;20032;-62
2022/12/07 00:33:38;;;;;;;7.22;1.52;;;;;;;5.65;100.00;101933.25;5032663;28;20029;-64
2022/12/07 00:36:06;;;;;;;5.90;1.25;;;;;;;5.57;100.00;101931.50;5033183;28;20496;-64
2022/12/07 00:38:33;;;;;;;6.25;1.58;;;;;;;5.66;100.00;101932.41;5048288;28;20033;-70
2022/12/07 00:41:00;;;;;;;6.47;1.75;;;;;;;5.69;100.00;101935.06;5032247;28;20026;-61
2022/12/07 00:43:26;;;;;;;8.98;1.45;;;;;;;5.67;100.00;101942.88;5034486;28;20130;-62
2022/12/07 00:45:52;;;;;;;13.07;1.85;;;;;;;5.67;100.00;101931.53;5052267;28;20432;-68
2022/12/07 00:48:17;;;;;;;8.80;1.25;;;;;;;5.67;100.00;101921.09;5050969;28;20052;-56
2022/12/07 00:50:43;;;;;;;12.50;1.67;;;;;;;5.80;100.00;101925.50;5052036;28;20112;-68
2022/12/07 00:53:08;;;;;;;9.55;1.50;;;;;;;5.87;100.00;101928.13;5051311;28;20044;-69
2022/12/07 00:55:34;;;;;;;14.07;1.83;;;;;;;5.85;100.00;101929.84;5051510;28;20470;-67
2022/12/07 00:57:59;;;;;;;6.45;1.38;;;;;;;5.92;100.00;101939.47;5051503;28;20029;-70
2022/12/07 01:00:25;;;;;;;4.00;2.33;;;;;;;5.85;100.00;101940.31;5052015;28;20021;-70
2022/12/07 01:02:50;;;;;;;13.02;1.58;;;;;;;5.84;100.00;101941.19;5050925;28;20040;-68
2022/12/07 01:05:15;;;;;;;9.63;1.30;;;;;;;5.89;100.00;101947.31;5052260;28;20066;-71
2022/12/07 01:07:41;;;;;;;7.07;1.00;;;;;;;5.90;100.00;101938.63;5051908;28;20021;-69
2022/12/07 01:10:06;;;;;;;6.25;0.95;;;;;;;6.01;100.00;101939.50;5051874;28;20087;-67
2022/12/07 01:12:32;;;;;;;8.98;1.17;;;;;;;6.14;100.00;101926.50;5051833;28;20021;-67
2022/12/07 01:14:57;;;;;;;5.75;1.05;;;;;;;6.18;100.00;101931.72;5051291;28;20112;-72
2022/12/07 01:17:22;;;;;;;13.45;1.60;;;;;;;6.20;100.00;101936.97;5050160;28;20667;-69
2022/12/07 01:19:48;;;;;;;6.18;1.17;;;;;;;6.15;100.00;101939.59;5050977;28;20380;-71
2022/12/07 01:22:13;;;;;;;7.90;0.82;;;;;;;6.10;100.00;101932.56;5050550;28;20667;-70
2022/12/07 01:24:38;;;;;;;6.15;1.10;;;;;;;6.16;100.00;101929.97;5051317;28;20447;-67
2022/12/07 01:27:04;;;;;;;10.05;1.00;;;;;;;6.21;100.00;101933.50;5050293;28;20472;-72
2022/12/07 01:29:29;;;;;;;4.22;1.10;;;;;;;6.23;100.00;101942.19;5051266;28;20029;-68
2022/12/07 01:31:54;;;;;;;3.33;0.70;;;;;;;6.30;100.00;101941.34;5049855;28;20112;-59
2022/12/07 01:34:20;;;;;;;6.93;1.05;;;;;;;6.31;100.00;101937.00;5050075;28;20100;-70
2022/12/07 01:36:45;;;;;;;4.30;0.90;;;;;;;6.29;100.00;101939.59;5050678;28;20124;-67
2022/12/07 01:39:10;;;;;;;4.97;0.95;;;;;;;6.16;100.00;101924.75;5049972;28;20029;-63
2022/12/07 01:41:40;;;;;;;7.15;0.93;;;;;;;5.99;100.00;101932.53;5051119;28;20029;-67
2022/12/07 01:44:09;;;;;;;;;;;;;;;5.81;100.00;101929.84;5051796;28;20430;-70
2022/12/07 01:46:35;;;;;;;7.47;1.15;;;;;;;5.72;100.00;101929.81;5050962;28;19998;-70
2022/12/07 01:49:01;;;;;;;5.93;0.90;;;;;;;5.54;100.00;101931.47;5042498;28;20065;-60
2022/12/07 01:51:27;;;;;;;4.70;0.80;;;;;;;5.46;100.00;101932.31;5030702;28;20022;-71
2022/12/07 01:53:53;;;;;;;6.07;1.13;;;;;;;5.38;100.00;101934.88;5029191;28;20722;-68
2022/12/07 01:56:20;;;;;;;6.28;1.63;;;;;;;5.31;100.00;101929.63;5030629;28;20059;-69
2022/12/07 01:58:45;;;;;;;6.75;1.23;;;;;;;5.45;100.00;101934.06;5029291;28;20029;-68
2022/12/07 02:01:11;;;;;;;8.60;1.30;;;;;;;5.58;100.00;101948.06;5029161;28;20029;-59
2022/12/07 02:03:39;;;;;;;8.98;1.08;;;;;;;5.60;100.00;101940.22;5028818;28;20116;-69
2022/12/07 02:06:05;;;;;;;9.50;1.00;;;;;;;5.75;100.00;101929.81;5030975;28;20040;-71
2022/12/07 02:08:32;;;;;;;5.60;1.08;;;;;;;5.90;100.00;101923.78;5067226;23;20103;-68
2022/12/07 02:10:57;;;;;;;7.47;1.10;;;;;;;5.89;100.00;101915.91;5008990;28;20018;-68
2022/12/07 02:13:25;;;;;;;3.50;1.20;;;;;;;5.79;100.00;101910.69;5010616;28;20407;-67
2022/12/07 02:16:05;;;;;;;5.70;1.15;;;;;;;5.63;100.00;101911.47;5008253;28;20022;-68
2022/12/07 02:18:43;;;;;;;3.80;0.90;;;;;;;5.51;100.00;101912.31;5007447;28;20033;-69
2022/12/07 02:21:44;;;;;;;5.53;1.25;;;;;;;5.55;100.00;101917.56;4995795;28;20117;-67
2022/12/07 02:24:24;;;;;;;6.82;1.08;;;;;;;5.59;100.00;101914.94;4986990;28;20069;-69
2022/12/07 02:27:02;;;;;;;8.70;1.45;;;;;;;5.57;100.00;101922.78;5008084;28;20029;-68
2022/12/07 02:29:39;;;;;;;8.73;0.98;;;;;;;5.57;100.00;101915.81;5008826;28;20105;-69
2022/12/07 02:32:20;;;;;;;8.48;1.20;;;;;;;5.66;100.00;101903.66;4996010;28;20038;-67
2022/12/07 02:34:51;;;;;;;10.35;0.98;;;;;;;5.67;100.00;101905.41;4987795;28;20038;-69
2022/12/07 02:37:39;;;;;;;4.53;0.80;;;;;;;5.72;100.00;101903.66;4993079;28;20069;-69
2022/12/07 02:40:11;;;;;;;13.20;1.75;;;;;;;5.74;100.00;101901.94;4985898;28;20440;-69
2022/12/07 02:42:41;;;;;;;5.30;1.10;;;;;;;5.71;100.00;101912.38;5003056;28;20057;-68
2022/12/07 02:45:09;;;;;;;5.63;1.30;;;;;;;5.69;100.00;101921.97;5008393;28;20026;-68
2022/12/07 02:47:36;;;;;;;2.88;0.80;;;;;;;5.68;100.00;101930.66;5006916;28;20033;-68
2022/12/07 02:50:04;;;;;;;4.63;0.65;;;;;;;5.78;100.00;101919.38;5006793;28;20026;-69
2022/12/07 02:52:29;;;;;;;5.82;0.90;;;;;;;5.79;100.00;101915.03;5008655;28;20033;-68
2022/12/07 02:54:54;;;;;;;10.02;1.92;;;;;;;5.83;100.00;101914.16;5008517;28;20025;-68
2022/12/07 02:57:32;;;;;;;5.72;1.20;;;;;;;5.89;100.00;101906.34;5008576;28;20025;-66
2022/12/07 03:00:03;;;;;;;9.40;1.05;;;;;;;5.86;100.00;101897.59;5009189;28;20022;-68
2022/12/07 03:02:38;;;;;;;8.57;1.30;;;;;;;5.83;100.00;101906.31;5008545;28;20455;-68
2022/12/07 03:05:06;;;;;;;4.72;0.95;;;;;;;5.73;100.00;101904.53;5009247;28;20468;-68
2022/12/07 03:07:38;;;;;;;7.47;1.08;;;;;;;5.63;100.00;101908.88;5009352;28;20042;-67
2022/12/07 03:10:19;;;;;;;10.73;1.10;;;;;;;5.58;100.00;101903.63;5008215;28;20030;-68
2022/12/07 03:13:01;;;;;;;5.05;1.17;;;;;;;5.55;100.00;101907.09;5008182;28;20030;-70
2022/12/07 03:15:35;;;;;;;6.90;0.93;;;;;;;5.43;100.00;101907.03;5009784;28;20029;-68
2022/12/07 03:18:02;;;;;;;3.88;0.70;;;;;;;5.31;100.00;101913.97;5007013;28;20172;-68
2022/12/07 03:20:29;;;;;;;4.90;1.00;;;;;;;5.22;100.00;101913.00;5008318;28;20026;-69
2022/12/07 03:22:54;;;;;;;7.18;1.25;;;;;;;5.26;100.00;101915.66;5007905;28;20400;-67
2022/12/07 03:25:20;;;;;;;5.53;1.15;;;;;;;5.30;100.00;101914.81;5009023;28;20034;-69
2022/12/07 03:27:50;;;;;;;7.70;1.15;;;;;;;5.35;100.00;101917.44;5008225;28;20045;-67
2022/12/07 03:30:59;;;;;;;6.70;1.20;;;;;;;5.41;100.00;101921.81;5007092;28;20018;-69
2022/12/07 03:33:29;;;;;;;13.75;1.23;;;;;;;5.45;100.00;101910.53;5007890;28;20033;-68
2022/12/07 03:36:05;;;;;;;7.00;1.20;;;;;;;5.55;100.00;101906.22;5007469;28;20520;-68
2022/12/07 03:38:50;;;;;;;6.43;0.90;;;;;;;5.55;100.00;101899.25;5007951;28;20049;-69
2022/12/07 03:41:24;;;;;;;8.07;1.20;;;;;;;5.55;100.00;101899.25;5007550;28;20053;-69
2022/12/07 03:43:49;;;;;;;8.13;0.93;;;;;;;5.53;100.00;101898.38;5007438;28;20294;-69
2022/12/07 03:46:23;;;;;;;5.75;1.25;;;;;;;5.44;100.00;101896.59;5007700;28;20065;-68
2022/12/07 03:49:00;;;;;;;6.65;1.25;;;;;;;5.35;100.00;101898.25;5007260;28;20030;-68
2022/12/07 03:51:32;;;;;;;4.65;1.25;;;;;;;5.28;100.00;101890.41;5007422;28;20487;-69
2022/12/07 03:54:05;;;;;;;10.20;1.08;;;;;;;5.26;100.00;101893.88;5007941;28;20030;-68
2022/12/07 03:56:32;;;;;;;8.82;1.38;;;;;;;5.18;100.00;101891.22;5008202;28;20667;-68
2022/12/07 03:58:57;;;;;;;5.90;0.75;;;;;;;5.12;100.00;101881.59;5007012;28;20032;-69
2022/12/07 04:01:24;;;;;;;3.17;0.85;;;;;;;5.07;100.00;101883.31;5008508;28;20038;-69
2022/12/07 04:03:49;;;;;;;4.00;0.90;;;;;;;4.97;100.00;101882.38;5006845;28;20026;-68
2022/12/07 04:06:14;;;;;;;6.22;1.13;;;;;;;4.87;100.00;101881.44;5008704;28;20121;-69
2022/12/07 04:08:40;;;;;;;12.75;1.35;;;;;;;4.73;100.00;101883.94;5007095;28;20038;-68
2022/12/07 04:11:05;;;;;;;3.13;0.80;;;;;;;4.65;100.00;101881.31;5009128;28;20030;-66
2022/12/07 04:14:17;;;;;;;10.88;1.73;;;;;;;4.67;100.00;101883.94;5008207;28;20022;-67
2022/12/07 04:16:15;;;;;;;9.32;1.38;;;;;;;4.67;100.00;101882.19;5007390;28;20108;-70
2022/12/07 04:18:41;;;;;;;9.73;1.30;;;;;;;4.65;100.00;101880.41;5007603;28;20030;-68
2022/12/07 04:21:06;;;;;;;7.50;1.20;;;;;;;4.66;100.00;101876.94;5008416;28;20018;-68
2022/12/07 04:23:31;;;;;;;5.78;1.08;;;;;;;4.74;100.00;101877.88;5008024;28;20435;-69
2022/12/07 04:25:57;;;;;;;9.02;1.52;;;;;;;4.78;100.00;101884.88;5008330;28;20108;-70
2022/12/07 04:28:22;;;;;;;12.45;1.20;;;;;;;4.88;100.00;101879.72;5008694;28;20021;-68
2022/12/07 04:30:47;;;;;;;13.75;1.30;;;;;;;4.99;100.00;101883.28;5008170;28;20101;-69
2022/12/07 04:33:13;;;;;;;6.47;1.10;;;;;;;5.12;100.00;101885.97;5007617;28;20064;-68
2022/12/07 04:35:38;;;;;;;11.13;2.25;;;;;;;5.19;100.00;101885.13;5007640;28;20054;-70
2022/12/07 04:38:03;;;;;;;9.93;1.35;;;;;;;5.27;100.00;101890.41;5006775;28;20445;-70
2022/12/07 04:40:29;;;;;;;6.22;1.10;;;;;;;5.05;100.00;101896.38;5007797;28;20488;-69
2022/12/07 04:42:54;;;;;;;10.70;1.27;;;;;;;5.07;100.00;101885.94;5007087;28;20477;-68
2022/12/07 04:45:19;;;;;;;7.15;0.88;;;;;;;5.16;100.00;101885.13;5006264;28;20105;-67
2022/12/07 04:47:44;;;;;;;8.73;1.48;;;;;;;5.24;100.00;101875.56;5007340;28;20200;-69
2022/12/07 04:50:10;;;;;;;5.05;1.05;;;;;;;5.17;100.00;101871.16;5008860;28;20102;-69
2022/12/07 04:52:35;;;;;;;5.15;1.08;;;;;;;5.27;100.00;101867.75;5008726;28;20117;-70
2022/12/07 04:55:01;;;;;;;8.93;1.52;;;;;;;5.35;100.00;101864.28;5008045;28;20029;-69
2022/12/07 04:57:26;;;;;;;8.70;1.20;;;;;;;5.44;100.00;101861.72;5007159;28;20030;-68
2022/12/07 04:59:51;;;;;;;9.27;2.25;;;;;;;5.54;100.00;101860.03;5008323;28;20161;-70
2022/12/07 05:02:17;;;;;;;8.10;1.10;;;;;;;5.63;100.00;101864.41;5007278;28;20037;-68
2022/12/07 05:04:42;;;;;;;8.77;1.48;;;;;;;5.75;100.00;101863.59;5008014;28;20037;-68
2022/12/07 05:07:07;;;;;;;5.03;1.10;;;;;;;5.78;100.00;101856.59;5008645;28;20057;-69
2022/12/07 05:09:33;;;;;;;12.32;1.60;;;;;;;5.76;100.00;101850.50;5008730;28;20026;-68
2022/12/07 05:11:58;;;;;;;6.43;1.10;;;;;;;5.69;100.00;101848.75;5008821;28;20735;-68
2022/12/07 05:14:24;;;;;;;8.93;1.48;;;;;;;5.60;100.00;101851.34;5008807;28;20488;-67
2022/12/07 05:16:50;;;;;;;6.88;1.38;;;;;;;5.48;100.00;101853.00;5009849;28;20030;-69
2022/12/07 05:19:16;;;;;;;5.72;0.93;;;;;;;5.36;100.00;101850.38;5010619;28;20033;-69
2022/12/07 05:21:41;;;;;;;6.25;1.13;;;;;;;5.17;100.00;101842.44;5011472;28;20094;-68
2022/12/07 05:24:08;;;;;;;5.72;1.13;;;;;;;5.04;100.00;101851.94;5012064;28;20109;-69
2022/12/07 05:26:34;;;;;;;5.53;1.23;;;;;;;4.94;100.00;101856.25;5009630;28;20041;-68
2022/12/07 05:28:59;;;;;;;8.48;1.30;;;;;;;4.90;100.00;101849.25;5010854;28;20606;-66
2022/12/07 05:31:25;;;;;;;9.27;1.17;;;;;;;4.90;100.00;101846.63;5010740;28;20029;-68
2022/12/07 05:33:51;;;;;;;11.48;1.30;;;;;;;4.87;100.00;101849.22;5011505;28;20048;-68
2022/12/07 05:36:16;;;;;;;10.82;1.70;;;;;;;4.86;100.00;101855.31;5011081;28;20468;-69
2022/12/07 05:38:42;;;;;;;5.90;0.93;;;;;;;4.85;100.00;101864.88;5011124;28;20025;-69
2022/12/07 05:42:11;;;;;;;5.18;1.30;;;;;;;4.91;100.00;101862.31;5011383;28;20018;-69
2022/12/07 05:43:57;;;;;;;8.38;1.25;;;;;;;4.93;100.00;101867.56;5010631;28;20175;-69
2022/12/07 05:46:22;;;;;;;8.98;1.83;;;;;;;4.80;100.00;101870.09;5010037;28;20458;-68
2022/12/07 05:48:47;;;;;;;6.63;1.20;;;;;;;4.84;100.00;101865.75;5010500;28;20029;-66
2022/12/07 05:51:13;;;;;;;13.02;1.58;;;;;;;4.77;100.00;101863.97;5011146;28;20045;-68
2022/12/07 05:53:38;;;;;;;8.00;1.40;;;;;;;4.65;100.00;101863.03;5010674;28;20033;-69
2022/12/07 05:56:04;;;;;;;4.10;1.27;;;;;;;4.56;100.00;101865.56;5010704;28;20022;-65
2022/12/07 06:01:13;;;;;;;2.22;0.88;;;;;;;4.39;100.00;101866.31;5009987;28;20579;-69
2022/12/07 06:03:38;;;;;;;9.85;1.33;;;;;;;4.35;100.00;101861.91;5009904;28;20038;-69
2022/12/07 06:06:04;;;;;;;11.55;2.50;;;;;;;4.39;100.00;101858.47;5009168;28;20029;-69
2022/12/07 06:08:29;;;;;;;4.80;1.30;;;;;;;4.37;100.00;101859.31;5010659;28;20049;-68
2022/12/07 06:12:33;;;;;;;10.23;1.33;;;;;;;4.27;100.00;101867.06;5010687;28;20018;-68
2022/12/07 06:13:40;;;;;;;16.40;1.40;;;;;;;4.14;100.00;101859.97;5009975;28;20030;-68
2022/12/07 06:16:05;;;;;;;4.45;1.00;;;;;;;4.00;100.00;101865.09;5010664;28;20119;-68
2022/12/07 06:18:31;;;;;;;2.78;0.75;;;;;;;3.89;100.00;101859.75;5003848;28;20077;-67
2022/12/07 06:20:56;;;;;;;2.70;1.08;;;;;;;3.86;100.00;101854.50;5006983;28;20014;-68
2022/12/07 06:23:21;;;;;;;6.07;1.15;;;;;;;3.78;100.00;101850.09;5010002;28;20552;-68
2022/12/07 06:25:47;;;;;;;4.50;1.02;;;;;;;3.81;100.00;101853.56;5009994;28;20050;-67
2022/12/07 06:28:12;;;;;;;8.07;1.38;;;;;;;3.74;100.00;101856.13;5009658;28;20076;-67
2022/12/07 06:30:37;;;;;;;9.70;1.48;;;;;;;3.72;100.00;101855.22;5009740;28;20137;-70
2022/12/07 06:33:03;;;;;;;5.80;1.27;;;;;;;3.74;100.00;101856.13;5007907;28;20136;-69
2022/12/07 06:35:28;;;;;;;11.98;2.35;;;;;;;3.70;100.00;101866.50;5010197;28;20026;-64
2022/12/07 06:37:53;;;;;;;7.75;1.70;;;;;;;3.76;100.00;101854.38;5009820;28;20029;-68
2022/12/07 06:40:19;;;;;;;11.18;2.30;;;;;;;3.87;100.00;101862.34;5010354;28;20058;-68
2022/12/07 06:42:44;;;;;;;5.40;1.27;;;;;;;3.96;100.00;101858.06;5009692;28;20111;-68
2022/12/07 06:45:10;;;;;;;9.63;1.70;;;;;;;4.10;100.00;101871.25;5010216;28;20076;-67
2022/12/07 06:47:35;;;;;;;12.20;1.90;;;;;;;4.19;100.00;101894.84;5009296;28;20022;-67
2022/12/07 06:50:00;;;;;;;15.57;2.45;;;;;;;4.42;100.00;101894.16;5009470;28;20033;-68
2022/12/07 06:52:26;;;;;;;17.77;3.20;;;;;;;4.67;100.00;101892.63;5007633;28;20034;-69
2022/12/07 06:54:51;;;;;;;9.65;2.50;;;;;;;4.86;100.00;101877.09;5009234;28;20476;-67
2022/12/07 06:57:16;;;;;;;13.73;2.20;;;;;;;4.99;100.00;101875.44;5008402;28;20025;-65
2022/12/07 06:59:42;;;;;;;12.35;2.20;;;;;;;5.06;100.00;101874.59;5008530;28;20026;-68
2022/12/07 07:02:08;;;;;;;9.13;1.60;;;;;;;5.10;100.00;101872.00;4998423;28;20028;-67
2022/12/07 07:04:33;;;;;;;10.10;2.05;;;;;;;5.06;100.00;101865.91;4998818;28;20058;-69
2022/12/07 07:06:59;;;;;;;6.80;1.85;;;;;;;4.98;100.00;101871.09;4999977;28;20449;-68
2022/12/07 07:09:24;;;;;;;7.47;1.90;;;;;;;4.93;100.00;101862.31;4994160;28;20377;-65
2022/12/07 07:11:49;;;;;;;6.82;1.88;;;;;;;4.85;100.00;101864.88;4996144;28;20029;-69
2022/12/07 07:14:18;;;;;;;6.93;1.55;;;;;;;4.62;100.00;101865.63;5007512;28;20034;-70
2022/12/07 07:16:44;;;;;;;11.55;1.88;;;;;;;4.46;100.00;101872.47;5005933;28;20030;-69
2022/12/07 07:19:09;;;;;;;6.07;1.60;;;;;;;4.32;100.00;101861.88;4998586;28;20042;-67
2022/12/07 07:21:34;;;;;;;8.13;1.98;;;;;;;4.24;100.00;101864.44;4996091;28;20031;-68
2022/12/07 07:24:00;;;;;;;11.65;2.00;;;;;;;4.24;100.00;101866.19;4999495;28;20105;-66
2022/12/07 07:26:25;;;;;;;8.50;1.35;;;;;;;4.17;100.00;101865.22;4996868;28;20437;-68
2022/12/07 07:28:51;;;;;;;7.22;1.80;;;;;;;4.20;100.00;101867.00;4996154;28;20026;-69
2022/12/07 07:31:16;;;;;;;8.50;1.98;;;;;;;4.12;100.00;101866.94;4998715;28;20030;-68
2022/12/07 07:33:41;;;;;;;13.27;2.10;;;;;;;4.03;100.00;101862.47;5004328;28;20550;-68
2022/12/07 07:36:07;;;;;;;14.55;2.05;;;;;;;4.02;100.00;101864.22;4990234;28;20485;-68
2022/12/07 07:38:32;;;;;;;7.97;2.03;;;;;;;4.08;100.00;101872.97;4990501;28;20048;-68
2022/12/07 07:40:57;;;;;;;7.63;2.03;;;;;;;4.11;100.00;101870.38;4992286;28;20018;-69
2022/12/07 07:43:23;;;;;;;7.75;2.20;;;;;;;4.18;100.00;101874.81;4997681;28;20038;-68
2022/12/07 07:45:48;;;;;;;6.10;2.00;;;;;;;4.28;100.00;101875.78;5001084;28;20025;-65
2022/12/07 07:48:13;;;;;;;13.50;2.67;;;;;;;4.32;100.00;101881.88;5003611;28;20484;-68
2022/12/07 07:50:39;;;;;;;7.40;2.25;;;;;;;4.30;100.00;101880.16;5009035;28;20026;-67
2022/12/07 07:53:04;;;;;;;21.63;2.70;;;;;;;4.38;100.00;101881.94;5006535;28;20116;-68
2022/12/07 07:55:29;;;;;;;13.13;2.10;;;;;;;4.45;100.00;101883.75;4999325;28;20477;-68
2022/12/07 07:57:56;;;;;;;9.13;3.05;;;;;;;4.50;100.00;101876.84;4993935;28;20058;-69
2022/12/07 08:00:21;;;;;;;17.27;2.85;;;;;;;4.48;100.00;101868.09;5000763;28;20029;-69
2022/12/07 08:02:47;;;;;;;15.90;3.42;;;;;;;4.54;100.00;101870.78;5006361;28;20037;-68
2022/12/07 08:05:13;;;;;;;9.65;2.22;;;;;;;4.53;100.00;101861.19;4990514;28;20062;-66
2022/12/07 08:07:39;;;;;;;10.90;2.50;;;;;;;4.57;100.00;101861.22;4989103;28;20401;-67
2022/12/07 08:10:05;;;;;;;11.57;2.75;;;;;;;4.49;100.00;101875.06;4989425;28;20042;-68
2022/12/07 08:12:30;;;;;;;6.90;2.13;;;;;;;4.46;100.00;101874.19;4989095;28;20046;-68
2022/12/07 08:14:55;;;;;;;12.82;2.20;;;;;;;4.37;100.00;101880.19;4993435;28;20026;-68
2022/12/07 08:17:21;;;;;;;13.68;2.47;;;;;;;4.26;100.00;101880.09;4997475;28;20032;-66
2022/12/07 08:19:46;;;;;;;7.63;1.85;;;;;;;4.17;100.00;101878.28;4992485;28;20377;-66
2022/12/07 08:22:11;;;;;;;10.88;2.25;;;;;;;4.14;100.00;101886.06;5000979;28;20105;-68
2022/12/07 08:24:38;;;;;;;11.00;2.00;;;;;;;4.09;100.00;101886.03;4999193;28;20033;-68
2022/12/07 08:27:03;;;;;;;12.75;2.42;;;;;;;4.17;100.00;101896.53;4992332;28;20362;-68
2022/12/07 08:29:29;;;;;;;16.40;2.95;;;;;;;4.29;100.00;101899.28;4993924;28;20030;-68
2022/12/07 08:31:54;;;;;;;13.90;3.63;;;;;;;4.50;100.00;101892.50;4998361;28;20034;-67
2022/12/07 08:34:20;;;;;;;6.25;1.98;;;;;;;4.64;100.00;101886.53;4996436;28;20062;-69
2022/12/07 08:36:45;;;;;;;16.95;2.80;;;;;;;4.79;100.00;101893.59;4998576;28;20475;-69
2022/12/07 08:39:10;;;;;;;12.23;3.13;;;;;;;4.93;100.00;101883.22;4998009;28;20453;-68
2022/12/07 08:41:36;;;;;;;11.63;2.42;;;;;;;4.92;100.00;101882.38;5002670;28;20452;-68
2022/12/07 08:44:01;;;;;;;6.57;2.38;;;;;;;4.93;100.00;101880.63;4996094;28;20392;-68
2022/12/07 08:46:36;;;;;;;5.03;1.88;;;;;;;5.01;100.00;101878.06;4998598;28;20018;-69
2022/12/07 08:49:05;;;;;;;3.75;1.63;;;;;;;5.19;100.00;101877.28;5002015;28;20463;-68
2022/12/07 08:51:30;;;;;;;7.32;2.00;;;;;;;5.33;100.00;101863.41;5011066;28;20030;-69
2022/12/07 08:53:56;;;;;;;9.23;1.80;;;;;;;5.44;100.00;101877.41;5006552;28;20109;-69
2022/12/07 08:56:21;;;;;;;6.10;2.13;;;;;;;5.55;100.00;101875.72;4999105;28;20026;-69
2022/12/07 08:58:47;;;;;;;6.95;1.90;;;;;;;5.65;100.00;101875.72;5000108;28;20374;-67
2022/12/07 09:01:12;;;;;;;10.48;1.98;;;;;;;5.75;100.00;101877.50;5003263;28;20030;-68
2022/12/07 09:03:38;;;;;;;5.90;2.33;;;;;;;5.83;100.00;101874.91;5000304;28;20022;-67
2022/12/07 09:06:04;;;;;;;5.70;2.00;;;;;;;5.91;100.00;101872.34;5009028;28;20066;-68
2022/12/07 09:08:33;;;;;;;14.88;2.40;;;;;;;5.92;100.00;101874.06;5009902;28;20153;-67
2022/12/07 09:10:59;;;;;;;2.75;1.35;;;;;;;6.01;100.00;101868.88;5010310;28;20042;-68
2022/12/07 09:13:24;;;;;;;5.78;1.05;;;;;;;6.10;100.00;101875.88;5011836;28;20025;-67
2022/12/07 09:15:49;;;;;;;5.50;1.30;;;;;;;6.26;100.00;101879.38;5010645;28;20030;-68
2022/12/07 09:18:15;;;;;;;4.68;1.40;;;;;;;6.36;100.00;101884.63;5012004;28;20033;-69
2022/12/07 09:20:40;;;;;;;7.00;1.33;;;;;;;6.47;100.00;101890.75;5011695;28;20062;-68
2022/12/07 09:23:06;;;;;;;5.43;1.52;;;;;;;6.42;100.00;101882.03;5011607;28;20018;-68
2022/12/07 09:25:33;;;;;;;6.70;1.40;;;;;;;6.29;100.00;101884.63;5011365;28;20039;-68
2022/12/07 09:27:58;;;;;;;8.32;1.35;;;;;;;6.26;100.00;101882.00;5010779;28;20179;-69
2022/12/07 09:30:24;;;;;;;4.55;1.23;;;;;;;6.31;100.00;101880.28;5011202;28;20029;-67
2022/12/07 09:32:50;;;;;;;4.47;0.82;;;;;;;6.39;100.00;101877.66;5005732;28;20033;-68
2022/12/07 09:35:15;;;;;;;6.97;0.90;;;;;;;6.39;100.00;101885.53;4998416;28;20034;-68
2022/12/07 09:37:40;;;;;;;3.13;0.93;;;;;;;6.49;100.00;101880.28;4990761;28;20046;-68
2022/12/07 09:40:06;;;;;;;3.25;1.30;;;;;;;6.57;100.00;101878.53;4991431;28;20022;-69
2022/12/07 09:42:35;;;;;;;6.13;1.55;;;;;;;6.55;100.00;101883.78;4990793;28;20110;-67
2022/12/07 09:45:01;;;;;;;;;;;;;;;6.59;100.00;101875.91;4989803;28;20042;-67
2022/12/07 09:47:27;;;;;;;8.07;1.35;;;;;;;6.51;100.00;101873.31;4991339;28;19914;-67
2022/12/07 09:50:04;;;;;;;4.00;1.33;;;;;;;6.55;100.00;101870.69;4995266;28;20061;-68
2022/12/07 09:52:30;;;;;;;1.75;1.00;;;;;;;6.65;100.00;101862.81;5002552;28;20049;-68
2022/12/07 09:54:55;;;;;;;4.13;1.00;;;;;;;6.67;100.00;101859.31;4992601;28;20034;-67
2022/12/07 09:57:27;;;;;;;3.03;0.98;;;;;;;6.62;100.00;101858.44;4990108;28;20038;-67
2022/12/07 09:59:54;;;;;;;6.85;1.10;;;;;;;6.59;100.00;101861.06;4989836;28;20031;-67
2022/12/07 10:02:35;;;;;;;2.63;0.98;;;;;;;6.76;100.00;101862.78;4988814;28;20030;-68
2022/12/07 10:05:00;;;;;;;6.68;1.58;;;;;;;6.98;100.00;101863.63;4990412;28;20035;-67
2022/12/07 10:07:26;;;;;;;5.35;1.30;;;;;;;7.31;100.00;101871.38;4990292;28;20089;-64
2022/12/07 10:09:51;;;;;;;3.60;1.15;;;;;;;7.51;100.00;101866.09;5000947;28;20436;-67
2022/12/07 10:12:16;;;;;;;10.05;1.17;;;;;;;7.48;100.00;101863.47;5008027;28;20751;-68
2022/12/07 10:15:02;;;;;;;4.85;1.15;;;;;;;7.54;100.00;101868.69;5006199;28;20310;-68
2022/12/07 10:17:51;;;;;;;3.42;1.00;;;;;;;7.39;100.00;101858.25;5005667;28;20110;-67
2022/12/07 10:20:26;;;;;;;;;;;;;;;7.41;100.00;101860.00;5008263;28;20476;-67
2022/12/07 10:23:01;;;;;;;6.78;1.05;;;;;;;7.31;100.00;101855.66;5007131;28;19909;-68
2022/12/07 10:25:34;;;;;;;4.90;1.20;;;;;;;7.27;100.00;101856.56;5008980;28;20374;-67
2022/12/07 10:28:15;;;;;;;6.53;1.48;;;;;;;7.22;100.00;101858.34;5009298;28;20044;-67
2022/12/07 10:30:47;;;;;;;4.15;1.67;;;;;;;7.17;100.00;101851.34;5009099;28;20072;-69
2022/12/07 10:33:30;;;;;;;6.22;1.98;;;;;;;7.17;100.00;101848.72;5009652;28;20096;-67
2022/12/07 10:35:55;;;;;;;6.70;1.65;;;;;;;7.37;100.00;101854.78;5010145;28;20498;-67
2022/12/07 10:38:21;;;;;;;9.70;2.40;;;;;;;7.51;100.00;101849.47;5009993;28;20112;-67
2022/12/07 10:40:46;;;;;;;3.65;1.90;;;;;;;7.86;100.00;101834.41;5003863;28;20030;-65
2022/12/07 10:43:11;;;;;;;9.05;1.65;;;;;;;8.14;100.00;101828.97;4993087;28;20497;-68
2022/12/07 10:46:17;;;;;;;4.60;1.27;;;;;;;8.48;100.00;101826.06;4995822;28;20491;-69
2022/12/07 10:49:07;;;;;;;6.13;1.58;;;;;;;8.58;100.00;101821.63;4989010;28;20550;-69
2022/12/07 10:52:07;;;;;;;7.80;1.10;;;;;;;8.59;100.00;101818.09;4997493;28;20112;-69
2022/12/07 10:54:45;;;;;;;10.23;1.70;;;;;;;8.50;100.00;101819.03;4999971;28;20548;-69
2022/12/07 10:57:27;;;;;;;11.15;1.40;;;;;;;8.42;100.00;101818.22;4997825;28;20022;-67
2022/12/07 11:00:01;;;;;;;7.80;1.63;;;;;;;8.28;100.00;101813.09;5000815;28;20037;-69
2022/12/07 11:02:59;;;;;;;12.02;2.22;;;;;;;8.25;100.00;101818.38;4997245;28;20026;-64
2022/12/07 11:05:40;;;;;;;5.55;1.55;;;;;;;8.21;100.00;101799.16;4995058;28;20116;-66
2022/12/07 11:08:33;;;;;;;10.55;2.28;;;;;;;8.24;100.00;101800.91;4998498;28;20386;-66
2022/12/07 11:11:29;;;;;;;6.90;2.00;;;;;;;8.36;100.00;101802.53;4997735;28;20029;-70
2022/12/07 11:13:55;;;;;;;10.18;2.60;;;;;;;8.49;100.00;101798.88;4997106;28;20069;-69
2022/12/07 11:16:24;;;;;;;4.15;1.35;;;;;;;8.66;100.00;101795.25;4995813;28;20025;-68
2022/12/07 11:19:25;;;;;;;6.93;1.33;;;;;;;8.72;100.00;101792.56;4991330;28;20021;-68
2022/12/07 11:22:01;;;;;;;5.85;1.38;;;;;;;9.28;100.00;101786.66;4998252;28;20638;-69
2022/12/07 11:25:08;;;;;;;7.30;1.35;;;;;;;9.76;99.62;101785.13;5013744;28;20117;-68
2022/12/07 11:28:11;;;;;;;2.05;0.52;;;;;;;10.03;96.65;101779.44;4963854;28;20513;-69
2022/12/07 11:31:09;;;;;;;3.20;1.10;;;;;;;9.89;95.39;101775.25;4965083;28;20062;-67
2022/12/07 11:33:52;;;;;;;6.15;1.00;;;;;;;9.68;94.41;101779.09;5003347;28;20246;-67
2022/12/07 11:36:27;;;;;;;9.18;1.45;;;;;;;9.63;95.12;101771.25;5005821;28;20480;-68